createdAt,value
2023-01-11T00:00:38.234Z,99.99
2023-01-11T00:01:38.161Z,99.99
2023-01-11T00:02:38.088Z,99.99
2023-01-11T00:03:37.972Z,99.99
2023-01-11T00:04:37.937Z,99.99
2023-01-11T00:05:37.803Z,99.99
2023-01-11T00:06:37.797Z,99.99
2023-01-11T00:07:37.634Z,99.99
2023-01-11T00:08:37.552Z,99.99
2023-01-11T00:09:37.463Z,99.99
2023-01-11T00:10:37.410Z,99.99
2023-01-11T00:11:37.296Z,99.99
2023-01-11T00:12:37.209Z,99.99
2023-01-11T00:13:37.124Z,99.99
2023-01-11T00:14:37.041Z,99.99
2023-01-11T00:15:36.952Z,99.99
2023-01-11T00:16:36.920Z,99.99
2023-01-11T00:17:36.812Z,99.99
2023-01-11T00:18:36.703Z,99.99
2023-01-11T00:19:36.625Z,99.99
2023-01-11T00:20:36.539Z,99.99
2023-01-11T00:21:36.446Z,99.99
2023-01-11T00:22:36.370Z,99.99
2023-01-11T00:23:36.280Z,99.99
2023-01-11T00:24:36.192Z,99.99
2023-01-11T00:25:36.167Z,99.99
2023-01-11T00:26:36.023Z,99.99
2023-01-11T00:27:36.038Z,99.99
2023-01-11T00:28:35.883Z,99.99
2023-01-11T00:29:35.770Z,99.99
2023-01-11T00:30:35.693Z,99.99
2023-01-11T00:31:35.617Z,99.99
2023-01-11T00:32:35.529Z,99.99
2023-01-11T00:33:35.459Z,99.99
2023-01-11T00:34:35.348Z,99.99
2023-01-11T00:35:35.267Z,99.99
2023-01-11T00:36:35.175Z,99.99
2023-01-11T00:37:35.099Z,99.99
2023-01-11T00:38:35.008Z,99.99
2023-01-11T00:39:35.176Z,99.99
2023-01-11T00:40:34.836Z,99.99
2023-01-11T00:41:34.758Z,99.99
2023-01-11T00:42:34.673Z,99.99
2023-01-11T00:43:34.593Z,99.99
2023-01-11T00:44:34.498Z,99.99
2023-01-11T00:45:34.416Z,99.99
2023-01-11T00:46:34.328Z,99.99
2023-01-11T00:47:34.394Z,99.99
2023-01-11T00:48:34.157Z,99.99
2023-01-11T00:49:34.095Z,99.99
2023-01-11T00:50:33.992Z,99.99
2023-01-11T00:51:33.906Z,99.99
2023-01-11T00:52:33.820Z,99.99
2023-01-11T00:53:33.732Z,99.99
2023-01-11T00:54:33.655Z,99.99
2023-01-11T00:55:33.567Z,99.99
2023-01-11T00:56:33.483Z,99.99
2023-01-11T00:57:33.393Z,99.99
2023-01-11T00:58:33.314Z,99.99
2023-01-11T00:59:33.245Z,99.99
2023-01-11T01:00:33.141Z,99.99
2023-01-11T01:01:33.110Z,99.99
2023-01-11T01:02:32.984Z,99.99
2023-01-11T01:03:32.887Z,99.99
2023-01-11T01:04:32.798Z,99.99
2023-01-11T01:05:32.740Z,99.99
2023-01-11T01:06:32.655Z,99.99
2023-01-11T01:07:32.549Z,99.99
2023-01-11T01:08:32.468Z,99.99
2023-01-11T01:09:32.577Z,99.99
2023-01-11T01:10:32.292Z,99.99
2023-01-11T01:11:32.208Z,99.99
2023-01-11T01:12:32.124Z,99.99
2023-01-11T01:13:32.043Z,99.99
2023-01-11T01:14:31.954Z,99.99
2023-01-11T01:15:32.130Z,99.99
2023-01-11T01:16:31.785Z,99.99
2023-01-11T01:17:31.700Z,99.99
2023-01-11T01:18:31.625Z,99.99
2023-01-11T01:19:31.547Z,99.99
2023-01-11T01:20:31.450Z,99.99
2023-01-11T01:21:31.383Z,99.99
2023-01-11T01:22:31.281Z,99.99
2023-01-11T01:23:31.317Z,99.99
2023-01-11T01:24:31.178Z,99.99
2023-01-11T01:25:31.024Z,99.99
2023-01-11T01:26:30.945Z,99.99
2023-01-11T01:27:30.856Z,99.99
2023-01-11T01:28:30.776Z,99.99
2023-01-11T01:29:30.686Z,99.99
2023-01-11T01:30:30.603Z,99.99
2023-01-11T01:31:30.560Z,99.99
2023-01-11T01:32:30.432Z,99.99
2023-01-11T01:33:30.351Z,99.99
2023-01-11T01:34:30.266Z,99.99
2023-01-11T01:35:30.180Z,99.99
2023-01-11T01:36:30.111Z,99.99
2023-01-11T01:37:30.038Z,99.99
2023-01-11T01:38:29.931Z,99.99
2023-01-11T01:39:30.148Z,99.99
2023-01-11T01:40:29.759Z,99.99
2023-01-11T01:41:29.673Z,99.99
2023-01-11T01:42:29.592Z,99.99
2023-01-11T01:43:30.932Z,99.99
2023-01-11T01:44:29.422Z,99.99
2023-01-11T01:45:29.537Z,99.99
2023-01-11T01:46:29.356Z,99.99
2023-01-11T01:47:29.167Z,99.99
2023-01-11T01:48:29.088Z,99.99
2023-01-11T01:49:29.000Z,99.99
2023-01-11T01:50:28.908Z,99.99
2023-01-11T01:51:28.830Z,99.99
2023-01-11T01:52:28.794Z,99.99
2023-01-11T01:53:28.836Z,99.99
2023-01-11T01:54:28.581Z,99.99
2023-01-11T01:55:28.492Z,99.99
2023-01-11T01:56:28.407Z,99.99
2023-01-11T01:57:28.324Z,99.99
2023-01-11T01:58:28.237Z,99.99
2023-01-11T01:59:28.153Z,99.99
2023-01-11T02:00:28.216Z,99.99
2023-01-11T02:01:28.414Z,99.99
2023-01-11T02:02:27.985Z,99.99
2023-01-11T02:03:27.833Z,99.99
2023-01-11T02:04:27.833Z,99.99
2023-01-11T02:05:27.650Z,99.99
2023-01-11T02:06:27.625Z,99.99
2023-01-11T02:07:27.484Z,99.99
2023-01-11T02:08:27.400Z,99.99
2023-01-11T02:09:27.404Z,99.99
2023-01-11T02:10:27.228Z,99.99
2023-01-11T02:11:27.145Z,99.99
2023-01-11T02:12:30.062Z,99.99
2023-01-11T02:13:26.984Z,99.99
2023-01-11T02:14:26.890Z,99.99
2023-01-11T02:15:26.809Z,99.99
2023-01-11T02:16:26.809Z,99.99
2023-01-11T02:17:26.640Z,99.99
2023-01-11T02:18:26.553Z,99.99
2023-01-11T02:19:26.476Z,99.99
2023-01-11T02:20:26.395Z,99.99
2023-01-11T02:21:26.320Z,99.99
2023-01-11T02:22:26.231Z,99.99
2023-01-11T02:23:26.137Z,99.99
2023-01-11T02:24:26.047Z,99.99
2023-01-11T02:25:25.990Z,99.99
2023-01-11T02:26:25.888Z,99.99
2023-01-11T02:27:25.798Z,99.99
2023-01-11T02:28:25.713Z,99.99
2023-01-11T02:29:25.832Z,99.99
2023-01-11T02:30:25.548Z,99.99
2023-01-11T02:31:25.545Z,99.99
2023-01-11T02:32:25.375Z,99.99
2023-01-11T02:33:25.298Z,99.99
2023-01-11T02:34:25.207Z,99.99
2023-01-11T02:35:25.142Z,99.99
2023-01-11T02:36:25.042Z,99.99
2023-01-11T02:37:24.960Z,99.99
2023-01-11T02:38:24.874Z,99.99
2023-01-11T02:39:24.791Z,99.99
2023-01-11T02:40:24.707Z,99.99
2023-01-11T02:41:24.649Z,99.99
2023-01-11T02:42:24.642Z,99.99
2023-01-11T02:43:24.455Z,99.99
2023-01-11T02:44:24.370Z,99.99
2023-01-11T02:45:24.284Z,99.99
2023-01-11T02:46:24.253Z,99.99
2023-01-11T02:47:24.119Z,99.99
2023-01-11T02:48:24.032Z,99.99
2023-01-11T02:49:23.954Z,99.99
2023-01-11T02:50:23.865Z,99.99
2023-01-11T02:51:23.780Z,99.99
2023-01-11T02:52:23.697Z,99.99
2023-01-11T02:53:23.968Z,99.99
2023-01-11T02:54:23.531Z,99.99
2023-01-11T02:55:23.450Z,99.99
2023-01-11T02:56:23.363Z,99.99
2023-01-11T02:57:23.297Z,99.99
2023-01-11T02:58:23.193Z,99.99
2023-01-11T02:59:23.111Z,99.99
2023-01-11T03:00:23.036Z,99.99
2023-01-11T03:01:23.041Z,99.99
2023-01-11T03:02:22.862Z,99.99
2023-01-11T03:03:22.793Z,99.99
2023-01-11T03:04:22.691Z,99.99
2023-01-11T03:05:22.617Z,99.99
2023-01-11T03:06:22.579Z,99.99
2023-01-11T03:07:22.489Z,99.99
2023-01-11T03:08:22.351Z,99.99
2023-01-11T03:09:22.392Z,99.99
2023-01-11T03:10:22.184Z,99.99
2023-01-11T03:11:22.104Z,99.99
2023-01-11T03:12:22.016Z,99.99
2023-01-11T03:13:21.956Z,99.99
2023-01-11T03:14:21.848Z,99.99
2023-01-11T03:15:21.775Z,99.99
2023-01-11T03:16:21.744Z,99.99
2023-01-11T03:17:21.598Z,99.99
2023-01-11T03:18:21.522Z,99.99
2023-01-11T03:19:21.430Z,99.99
2023-01-11T03:20:21.344Z,99.99
2023-01-11T03:21:21.260Z,99.99
2023-01-11T03:22:21.179Z,99.99
2023-01-11T03:23:21.098Z,99.99
2023-01-11T03:24:21.009Z,99.99
2023-01-11T03:25:20.973Z,99.99
2023-01-11T03:26:20.842Z,99.99
2023-01-11T03:27:20.777Z,99.99
2023-01-11T03:28:20.675Z,99.99
2023-01-11T03:29:20.625Z,99.99
2023-01-11T03:30:20.517Z,99.99
2023-01-11T03:31:20.614Z,99.99
2023-01-11T03:32:20.339Z,99.99
2023-01-11T03:33:20.573Z,99.99
2023-01-11T03:34:20.171Z,99.99
2023-01-11T03:35:20.101Z,99.99
2023-01-11T03:36:20.354Z,99.99
2023-01-11T03:37:19.921Z,99.99
2023-01-11T03:38:19.837Z,99.99
2023-01-11T03:39:19.764Z,99.99
2023-01-11T03:40:19.667Z,99.99
2023-01-11T03:41:19.588Z,99.99
2023-01-11T03:42:19.503Z,99.99
2023-01-11T03:43:19.426Z,99.99
2023-01-11T03:44:19.339Z,99.99
2023-01-11T03:45:19.531Z,99.99
2023-01-11T03:46:19.227Z,99.99
2023-01-11T03:47:19.085Z,99.99
2023-01-11T03:48:19.003Z,99.99
2023-01-11T03:49:18.926Z,99.99
2023-01-11T03:50:18.834Z,99.99
2023-01-11T03:51:18.750Z,99.99
2023-01-11T03:52:18.664Z,99.99
2023-01-11T03:53:18.886Z,99.99
2023-01-11T03:54:18.499Z,99.99
2023-01-11T03:55:18.426Z,99.99
2023-01-11T03:56:18.337Z,99.99
2023-01-11T03:57:18.245Z,99.99
2023-01-11T03:58:18.163Z,99.99
2023-01-11T03:59:18.080Z,99.99
2023-01-11T04:00:18.001Z,99.99
2023-01-11T04:01:18.035Z,99.99
2023-01-11T04:02:17.881Z,99.99
2023-01-11T04:03:17.745Z,99.99
2023-01-11T04:04:17.721Z,99.99
2023-01-11T04:05:17.580Z,99.99
2023-01-11T04:06:17.493Z,99.99
2023-01-11T04:07:17.410Z,99.99
2023-01-11T04:08:17.327Z,99.99
2023-01-11T04:09:17.241Z,99.99
2023-01-11T04:10:17.166Z,99.99
2023-01-11T04:11:17.082Z,99.99
2023-01-11T04:12:16.993Z,99.99
2023-01-11T04:13:16.906Z,99.99
2023-01-11T04:14:16.827Z,99.99
2023-01-11T04:15:16.891Z,99.99
2023-01-11T04:16:16.769Z,99.99
2023-01-11T04:17:16.592Z,99.99
2023-01-11T04:18:16.487Z,99.99
2023-01-11T04:19:16.408Z,99.99
2023-01-11T04:20:16.335Z,99.99
2023-01-11T04:21:16.241Z,99.99
2023-01-11T04:22:16.176Z,99.99
2023-01-11T04:23:16.071Z,99.99
2023-01-11T04:24:16.002Z,99.99
2023-01-11T04:25:15.909Z,99.99
2023-01-11T04:26:15.825Z,99.99
2023-01-11T04:27:15.744Z,99.99
2023-01-11T04:28:15.688Z,99.99
2023-01-11T04:29:15.572Z,99.99
2023-01-11T04:30:15.490Z,99.99
2023-01-11T04:31:15.498Z,99.99
2023-01-11T04:32:15.323Z,99.99
2023-01-11T04:33:15.263Z,99.99
2023-01-11T04:34:15.159Z,99.99
2023-01-11T04:35:15.072Z,99.99
2023-01-11T04:36:14.989Z,99.99
2023-01-11T04:37:14.907Z,99.99
2023-01-11T04:38:14.821Z,99.99
2023-01-11T04:39:14.740Z,99.99
2023-01-11T04:40:14.659Z,99.99
2023-01-11T04:41:14.579Z,99.99
2023-01-11T04:42:14.486Z,99.99
2023-01-11T04:43:14.422Z,99.99
2023-01-11T04:44:14.325Z,99.99
2023-01-11T04:45:14.235Z,99.99
2023-01-11T04:46:14.160Z,99.99
2023-01-11T04:47:14.071Z,99.99
2023-01-11T04:48:13.987Z,99.99
2023-01-11T04:49:13.923Z,99.99
2023-01-11T04:50:13.883Z,99.99
2023-01-11T04:51:13.738Z,99.99
2023-01-11T04:52:13.657Z,99.36
2023-01-11T04:53:13.580Z,98.79
2023-01-11T04:54:13.494Z,98.41
2023-01-11T04:55:13.427Z,97.55
2023-01-11T04:56:13.362Z,97.55
2023-01-11T04:57:13.239Z,96.69
2023-01-11T04:58:13.153Z,96.41
2023-01-11T04:59:13.073Z,96.12
2023-01-11T05:00:13.006Z,95.56
2023-01-11T05:01:12.953Z,95.46
2023-01-11T05:02:12.829Z,95.75
2023-01-11T05:03:12.753Z,94.13
2023-01-11T05:04:13.576Z,94.03
2023-01-11T05:05:12.586Z,93.65
2023-01-11T05:06:12.732Z,93.08
2023-01-11T05:07:12.425Z,92.32
2023-01-11T05:08:12.319Z,91.66
2023-01-11T05:09:12.283Z,91.28
2023-01-11T05:10:12.152Z,90.89
2023-01-11T05:11:12.095Z,90.42
2023-01-11T05:12:11.983Z,89.56
2023-01-11T05:13:11.898Z,89.56
2023-01-11T05:14:11.818Z,88.71
2023-01-11T05:15:11.733Z,88.52
2023-01-11T05:16:11.658Z,88.90
2023-01-11T05:17:11.566Z,88.33
2023-01-11T05:18:11.485Z,88.61
2023-01-11T05:19:11.406Z,88.23
2023-01-11T05:20:11.327Z,88.23
2023-01-11T05:21:11.253Z,87.85
2023-01-11T05:22:11.148Z,87.38
2023-01-11T05:23:11.067Z,87.38
2023-01-11T05:24:10.981Z,87.38
2023-01-11T05:25:10.902Z,87.13
2023-01-11T05:26:10.820Z,86.05
2023-01-11T05:27:10.738Z,85.95
2023-01-11T05:28:10.646Z,85.47
2023-01-11T05:29:10.563Z,84.91
2023-01-11T05:30:10.481Z,85.19
2023-01-11T05:31:10.399Z,85.66
2023-01-11T05:32:10.312Z,85.95
2023-01-11T05:33:10.227Z,85.80
2023-01-11T05:34:10.145Z,85.57
2023-01-11T05:35:10.102Z,86.94
2023-01-11T05:36:09.983Z,86.66
2023-01-11T05:37:09.915Z,86.57
2023-01-11T05:38:09.811Z,86.47
2023-01-11T05:39:09.726Z,86.28
2023-01-11T05:40:09.643Z,86.66
2023-01-11T05:41:09.566Z,86.28
2023-01-11T05:42:09.480Z,86.33
2023-01-11T05:43:09.403Z,86.85
2023-01-11T05:44:09.336Z,86.57
2023-01-11T05:45:09.227Z,86.14
2023-01-11T05:46:09.225Z,86.47
2023-01-11T05:47:09.073Z,86.38
2023-01-11T05:48:08.976Z,86.76
2023-01-11T05:49:08.900Z,86.76
2023-01-11T05:50:08.809Z,87.13
2023-01-11T05:51:08.726Z,87.52
2023-01-11T05:52:08.653Z,86.76
2023-01-11T05:53:08.577Z,87.13
2023-01-11T05:54:08.477Z,86.57
2023-01-11T05:55:08.392Z,86.18
2023-01-11T05:56:08.310Z,86.38
2023-01-11T05:57:08.224Z,86.28
2023-01-11T05:58:08.142Z,86.18
2023-01-11T05:59:08.062Z,86.09
2023-01-11T06:00:07.983Z,85.61
2023-01-11T06:01:08.242Z,85.52
2023-01-11T06:02:07.965Z,86.18
2023-01-11T06:03:07.779Z,86.09
2023-01-11T06:04:07.643Z,86.57
2023-01-11T06:05:07.558Z,86.47
2023-01-11T06:06:07.493Z,86.66
2023-01-11T06:07:07.392Z,86.28
2023-01-11T06:08:07.307Z,86.85
2023-01-11T06:09:07.249Z,87.52
2023-01-11T06:10:07.143Z,86.94
2023-01-11T06:11:07.059Z,86.76
2023-01-11T06:12:06.981Z,87.13
2023-01-11T06:13:07.141Z,86.76
2023-01-11T06:14:06.810Z,86.57
2023-01-11T06:15:06.726Z,86.47
2023-01-11T06:16:06.660Z,86.94
2023-01-11T06:17:06.561Z,86.85
2023-01-11T06:18:06.477Z,87.52
2023-01-11T06:19:06.399Z,87.52
2023-01-11T06:20:06.310Z,86.57
2023-01-11T06:21:06.226Z,86.76
2023-01-11T06:22:06.145Z,86.28
2023-01-11T06:23:06.087Z,86.38
2023-01-11T06:24:05.982Z,86.76
2023-01-11T06:25:05.915Z,86.76
2023-01-11T06:26:05.834Z,86.47
2023-01-11T06:27:05.739Z,86.47
2023-01-11T06:28:05.645Z,86.28
2023-01-11T06:29:05.621Z,85.33
2023-01-11T06:30:05.477Z,85.24
2023-01-11T06:31:05.430Z,84.85
2023-01-11T06:32:05.312Z,84.85
2023-01-11T06:33:05.380Z,84.85
2023-01-11T06:34:05.156Z,85.14
2023-01-11T06:35:05.069Z,85.61
2023-01-11T06:36:04.983Z,85.99
2023-01-11T06:37:04.899Z,85.71
2023-01-11T06:38:04.823Z,85.80
2023-01-11T06:39:04.729Z,86.76
2023-01-11T06:40:04.647Z,86.47
2023-01-11T06:41:04.588Z,86.76
2023-01-11T06:42:04.479Z,87.99
2023-01-11T06:43:04.409Z,87.80
2023-01-11T06:44:04.342Z,87.80
2023-01-11T06:45:04.230Z,87.32
2023-01-11T06:46:04.199Z,86.94
2023-01-11T06:47:04.061Z,86.38
2023-01-11T06:48:03.983Z,86.85
2023-01-11T06:49:03.903Z,86.85
2023-01-11T06:50:03.814Z,86.18
2023-01-11T06:51:03.732Z,86.38
2023-01-11T06:52:03.896Z,86.76
2023-01-11T06:53:03.815Z,87.04
2023-01-11T06:54:03.487Z,87.32
2023-01-11T06:55:03.397Z,87.99
2023-01-11T06:56:03.317Z,88.09
2023-01-11T06:57:03.261Z,88.75
2023-01-11T06:58:03.171Z,88.66
2023-01-11T06:59:03.065Z,88.09
2023-01-11T07:00:02.981Z,88.94
2023-01-11T07:01:03.004Z,88.70
2023-01-11T07:02:02.818Z,89.08
2023-01-11T07:03:02.742Z,91.17
2023-01-11T07:04:02.663Z,92.03
2023-01-11T07:05:02.596Z,91.65
2023-01-11T07:06:02.487Z,91.94
2023-01-11T07:07:02.399Z,92.22
2023-01-11T07:08:02.325Z,91.46
2023-01-11T07:09:02.238Z,91.75
2023-01-11T07:10:02.165Z,92.99
2023-01-11T07:11:02.117Z,93.08
2023-01-11T07:12:01.984Z,94.79
2023-01-11T07:13:01.921Z,95.65
2023-01-11T07:14:01.823Z,96.22
2023-01-11T07:15:02.245Z,96.79
2023-01-11T07:16:01.707Z,96.41
2023-01-11T07:17:01.616Z,96.60
2023-01-11T07:18:01.488Z,99.27
2023-01-11T07:19:01.411Z,99.93
2023-01-11T07:20:01.325Z,99.84
2023-01-11T07:21:01.240Z,99.84
2023-01-11T07:22:01.158Z,99.99
2023-01-11T07:23:01.072Z,99.55
2023-01-11T07:24:00.993Z,99.17
2023-01-11T07:25:00.917Z,99.17
2023-01-11T07:26:00.884Z,99.74
2023-01-11T07:27:00.747Z,99.99
2023-01-11T07:28:00.662Z,99.46
2023-01-11T07:29:00.604Z,99.84
2023-01-11T07:30:00.502Z,99.46
2023-01-11T07:31:00.573Z,98.98
2023-01-11T07:32:00.352Z,99.36
2023-01-11T07:33:00.249Z,97.84
2023-01-11T07:34:00.173Z,97.17
2023-01-11T07:35:00.086Z,96.22
2023-01-11T07:36:00.002Z,95.46
2023-01-11T07:36:59.920Z,94.98
2023-01-11T07:37:59.834Z,94.32
2023-01-11T07:38:59.751Z,93.27
2023-01-11T07:39:59.669Z,92.79
2023-01-11T07:40:59.586Z,91.65
2023-01-11T07:41:59.503Z,91.75
2023-01-11T07:42:59.419Z,91.75
2023-01-11T07:43:59.339Z,90.42
2023-01-11T07:44:59.276Z,89.94
2023-01-11T07:45:59.301Z,89.84
2023-01-11T07:46:59.345Z,89.75
2023-01-11T07:47:59.028Z,89.56
2023-01-11T07:48:58.930Z,88.79
2023-01-11T07:49:58.844Z,88.04
2023-01-11T07:50:58.760Z,87.75
2023-01-11T07:51:58.681Z,87.18
2023-01-11T07:52:58.591Z,87.27
2023-01-11T07:53:58.507Z,87.18
2023-01-11T07:54:58.525Z,87.27
2023-01-11T07:55:58.349Z,87.56
2023-01-11T07:56:58.260Z,87.46
2023-01-11T07:57:58.489Z,87.94
2023-01-11T07:58:58.104Z,87.56
2023-01-11T07:59:58.013Z,88.23
2023-01-11T08:00:57.951Z,88.23
2023-01-11T08:01:57.848Z,88.32
2023-01-11T08:02:57.905Z,88.23
2023-01-11T08:03:57.684Z,88.79
2023-01-11T08:04:57.624Z,88.70
2023-01-11T08:05:57.516Z,88.51
2023-01-11T08:06:57.433Z,88.04
2023-01-11T08:07:57.375Z,87.94
2023-01-11T08:08:57.271Z,88.42
2023-01-11T08:09:57.184Z,87.37
2023-01-11T08:10:57.108Z,86.80
2023-01-11T08:11:57.026Z,87.08
2023-01-11T08:12:56.938Z,87.46
2023-01-11T08:13:56.855Z,87.18
2023-01-11T08:14:56.803Z,86.99
2023-01-11T08:15:56.757Z,86.99
2023-01-11T08:16:56.743Z,86.70
2023-01-11T08:17:56.525Z,87.08
2023-01-11T08:18:56.442Z,87.37
2023-01-11T08:19:56.356Z,87.65
2023-01-11T08:20:56.304Z,86.80
2023-01-11T08:21:56.194Z,86.32
2023-01-11T08:22:56.113Z,86.22
2023-01-11T08:23:56.029Z,84.70
2023-01-11T08:24:55.947Z,83.94
2023-01-11T08:25:55.867Z,83.56
2023-01-11T08:26:55.852Z,83.47
2023-01-11T08:27:55.698Z,83.37
2023-01-11T08:28:55.614Z,82.90
2023-01-11T08:29:55.532Z,82.70
2023-01-11T08:30:55.490Z,83.56
2023-01-11T08:31:55.371Z,83.94
2023-01-11T08:32:55.327Z,83.94
2023-01-11T08:33:55.203Z,85.47
2023-01-11T08:34:55.122Z,85.75
2023-01-11T08:35:55.034Z,86.80
2023-01-11T08:36:54.955Z,86.99
2023-01-11T08:37:54.870Z,87.94
2023-01-11T08:38:54.789Z,88.23
2023-01-11T08:39:54.754Z,87.75
2023-01-11T08:40:54.678Z,88.99
2023-01-11T08:41:54.543Z,88.99
2023-01-11T08:42:54.452Z,88.23
2023-01-11T08:43:54.374Z,88.79
2023-01-11T08:44:54.292Z,90.03
2023-01-11T08:45:54.214Z,90.99
2023-01-11T08:46:54.380Z,92.55
2023-01-11T08:47:54.039Z,92.55
2023-01-11T08:48:53.985Z,92.46
2023-01-11T08:49:53.877Z,91.79
2023-01-11T08:50:53.796Z,91.27
2023-01-11T08:51:53.729Z,91.99
2023-01-11T08:52:53.628Z,92.65
2023-01-11T08:53:53.551Z,92.22
2023-01-11T08:54:53.477Z,91.75
2023-01-11T08:55:53.387Z,91.41
2023-01-11T08:56:53.298Z,91.60
2023-01-11T08:57:53.219Z,91.41
2023-01-11T08:58:53.140Z,91.51
2023-01-11T08:59:53.051Z,91.13
2023-01-11T09:00:52.971Z,90.65
2023-01-11T09:01:53.013Z,90.17
2023-01-11T09:02:52.876Z,91.89
2023-01-11T09:03:52.736Z,91.75
2023-01-11T09:04:52.664Z,91.60
2023-01-11T09:05:52.565Z,90.84
2023-01-11T09:06:52.477Z,90.56
2023-01-11T09:07:52.395Z,90.36
2023-01-11T09:08:52.320Z,89.79
2023-01-11T09:09:52.227Z,90.46
2023-01-11T09:10:52.149Z,90.65
2023-01-11T09:11:52.071Z,89.03
2023-01-11T09:12:52.004Z,89.51
2023-01-11T09:13:51.898Z,89.98
2023-01-11T09:14:51.816Z,89.79
2023-01-11T09:15:51.769Z,90.84
2023-01-11T09:16:51.658Z,91.03
2023-01-11T09:17:51.584Z,91.03
2023-01-11T09:18:51.489Z,92.08
2023-01-11T09:19:51.407Z,91.79
2023-01-11T09:20:51.347Z,92.08
2023-01-11T09:21:51.240Z,93.03
2023-01-11T09:22:52.915Z,92.36
2023-01-11T09:23:51.076Z,91.99
2023-01-11T09:24:51.057Z,91.99
2023-01-11T09:25:50.912Z,91.41
2023-01-11T09:26:50.874Z,91.03
2023-01-11T09:27:50.748Z,90.75
2023-01-11T09:28:50.752Z,91.13
2023-01-11T09:29:50.588Z,91.79
2023-01-11T09:30:50.500Z,91.89
2023-01-11T09:31:50.424Z,92.94
2023-01-11T09:32:50.340Z,92.84
2023-01-11T09:33:50.262Z,92.65
2023-01-11T09:34:50.175Z,91.79
2023-01-11T09:35:50.090Z,91.03
2023-01-11T09:36:50.035Z,91.31
2023-01-11T09:37:49.939Z,91.13
2023-01-11T09:38:49.845Z,90.94
2023-01-11T09:39:49.811Z,90.65
2023-01-11T09:40:49.688Z,90.65
2023-01-11T09:41:49.605Z,90.84
2023-01-11T09:42:49.525Z,90.17
2023-01-11T09:43:49.436Z,90.27
2023-01-11T09:44:49.358Z,90.56
2023-01-11T09:45:49.272Z,90.36
2023-01-11T09:46:49.241Z,89.98
2023-01-11T09:47:49.111Z,89.41
2023-01-11T09:48:49.025Z,89.32
2023-01-11T09:49:48.944Z,88.93
2023-01-11T09:50:48.868Z,89.22
2023-01-11T09:51:48.783Z,88.84
2023-01-11T09:52:48.717Z,88.75
2023-01-11T09:53:48.616Z,89.13
2023-01-11T09:54:48.534Z,89.13
2023-01-11T09:55:48.454Z,88.46
2023-01-11T09:56:48.372Z,88.18
2023-01-11T09:57:48.332Z,88.27
2023-01-11T09:58:48.207Z,88.56
2023-01-11T09:59:48.178Z,88.56
2023-01-11T10:00:48.084Z,89.32
2023-01-11T10:01:47.963Z,89.13
2023-01-11T10:02:47.875Z,88.75
2023-01-11T10:03:47.795Z,88.84
2023-01-11T10:04:47.767Z,89.13
2023-01-11T10:05:47.632Z,88.65
2023-01-11T10:06:47.551Z,88.65
2023-01-11T10:07:47.467Z,88.08
2023-01-11T10:18:29.558Z,86.84
2023-01-11T10:18:31.449Z,86.65
2023-01-11T10:18:31.572Z,87.41
2023-01-11T10:18:32.088Z,87.03
2023-01-11T10:19:16.958Z,87.03
2023-01-11T10:19:46.531Z,87.03
2023-01-11T10:20:46.653Z,86.75
2023-01-11T10:21:46.324Z,86.55
2023-01-11T10:22:46.242Z,86.84
2023-01-11T10:23:47.338Z,86.55
2023-01-11T10:24:46.101Z,86.18
2023-01-11T10:25:45.995Z,86.08
2023-01-11T10:26:45.956Z,86.84
2023-01-11T10:27:45.850Z,85.80
2023-01-11T10:28:45.751Z,85.32
2023-01-11T10:29:45.917Z,84.84
2023-01-11T10:30:45.583Z,85.03
2023-01-11T10:31:45.565Z,85.89
2023-01-11T10:32:45.427Z,86.65
2023-01-11T10:33:45.350Z,86.36
2023-01-11T10:34:45.267Z,85.99
2023-01-11T10:35:45.179Z,85.60
2023-01-11T10:36:45.090Z,84.94
2023-01-11T10:37:45.013Z,84.65
2023-01-11T10:38:44.935Z,83.98
2023-01-11T10:39:44.843Z,83.32
2023-01-11T10:40:44.846Z,83.70
2023-01-11T10:41:44.683Z,84.08
2023-01-11T10:42:44.605Z,84.08
2023-01-11T10:43:44.516Z,84.17
2023-01-11T10:44:44.447Z,83.51
2023-01-11T10:45:44.430Z,82.75
2023-01-11T10:46:44.275Z,82.93
2023-01-11T10:47:44.190Z,82.93
2023-01-11T10:48:44.111Z,82.75
2023-01-11T10:49:44.046Z,82.18
2023-01-11T10:50:43.947Z,82.37
2023-01-11T10:51:43.859Z,81.98
2023-01-11T10:52:43.778Z,82.18
2023-01-11T10:53:43.697Z,81.89
2023-01-11T10:54:46.237Z,82.18
2023-01-11T10:55:43.536Z,82.27
2023-01-11T10:57:03.053Z,82.93
2023-01-11T10:58:00.177Z,83.61
2023-01-11T10:58:43.535Z,83.70
2023-01-11T10:59:43.205Z,84.36
2023-01-11T11:00:43.147Z,84.36
2023-01-11T11:01:43.056Z,84.84
2023-01-11T11:02:42.960Z,84.36
2023-01-11T11:03:42.876Z,83.80
2023-01-11T11:04:42.793Z,83.80
2023-01-11T11:05:42.713Z,83.89
2023-01-11T11:06:42.631Z,83.22
2023-01-11T11:07:42.550Z,82.93
2023-01-11T11:08:42.541Z,82.65
2023-01-11T11:09:42.383Z,82.46
2023-01-11T11:10:42.304Z,83.13
2023-01-11T11:11:42.218Z,82.93
2023-01-11T11:12:42.165Z,82.37
2023-01-11T11:13:43.442Z,81.98
2023-01-11T11:14:41.979Z,81.03
2023-01-11T11:15:41.895Z,81.41
2023-01-11T11:16:41.900Z,81.79
2023-01-11T11:17:41.736Z,81.70
2023-01-11T11:18:41.645Z,82.46
2023-01-11T11:19:42.043Z,83.32
2023-01-11T11:20:41.485Z,83.51
2023-01-11T11:21:41.599Z,83.51
2023-01-11T11:22:41.319Z,83.51
2023-01-11T11:23:41.235Z,84.17
2023-01-11T11:24:41.160Z,84.65
2023-01-11T11:25:43.319Z,85.80
2023-01-11T11:26:41.370Z,85.99
2023-01-11T11:27:40.908Z,87.13
2023-01-11T11:28:40.861Z,87.03
2023-01-11T11:29:40.749Z,88.18
2023-01-11T11:30:40.665Z,89.70
2023-01-11T11:31:42.176Z,89.98
2023-01-11T11:32:40.500Z,90.75
2023-01-11T11:33:40.415Z,90.70
2023-01-11T11:34:40.336Z,90.31
2023-01-11T11:35:40.353Z,90.50
2023-01-11T11:36:40.171Z,92.13
2023-01-11T11:37:40.091Z,92.41
2023-01-11T11:38:40.010Z,93.46
2023-01-11T11:39:39.927Z,95.08
2023-01-11T11:40:39.845Z,94.98
2023-01-11T11:41:39.818Z,94.79
2023-01-11T11:42:39.685Z,96.80
2023-01-11T11:43:39.604Z,96.98
2023-01-11T11:44:39.559Z,96.70
2023-01-11T11:45:39.481Z,96.98
2023-01-11T11:46:39.361Z,97.08
2023-01-11T11:47:39.278Z,96.41
2023-01-11T11:48:39.198Z,96.41
2023-01-11T11:49:39.171Z,96.03
2023-01-11T11:50:46.158Z,96.60
2023-01-11T11:51:38.956Z,95.70
2023-01-11T11:52:38.890Z,94.37
2023-01-11T11:53:38.803Z,96.60
2023-01-11T11:54:38.715Z,96.70
2023-01-11T11:55:38.635Z,99.99
2023-01-11T11:56:38.559Z,99.99
2023-01-11T11:57:38.469Z,98.13
2023-01-11T11:58:38.390Z,97.56
2023-01-11T11:59:38.308Z,97.75
2023-01-11T12:00:38.260Z,96.60
2023-01-11T12:01:38.148Z,95.46
2023-01-11T12:02:38.084Z,95.08
2023-01-11T12:03:37.987Z,96.22
2023-01-11T12:04:37.911Z,98.70
2023-01-11T12:05:37.846Z,99.37
2023-01-11T12:06:37.747Z,99.99
2023-01-11T12:07:49.773Z,99.37
2023-01-11T12:08:37.580Z,99.27
2023-01-11T12:09:37.501Z,98.79
2023-01-11T12:10:37.424Z,97.94
2023-01-11T12:11:37.342Z,99.55
2023-01-11T12:12:37.264Z,98.99
2023-01-11T12:13:37.182Z,97.22
2023-01-11T12:14:37.106Z,96.17
2023-01-11T12:15:37.021Z,96.94
2023-01-11T12:16:37.071Z,96.94
2023-01-11T12:17:36.861Z,97.22
2023-01-11T12:18:36.782Z,98.46
2023-01-11T12:19:36.705Z,98.85
2023-01-11T12:20:36.621Z,99.41
2023-01-11T12:21:36.537Z,99.99
2023-01-11T12:22:36.460Z,99.99
2023-01-11T12:23:36.483Z,99.99
2023-01-11T12:24:36.302Z,99.70
2023-01-11T12:25:36.268Z,98.85
2023-01-11T12:26:36.191Z,97.51
2023-01-11T12:27:36.058Z,97.13
2023-01-11T12:28:35.999Z,97.70
2023-01-11T12:29:35.905Z,98.27
2023-01-11T12:30:35.876Z,99.41
2023-01-11T12:31:35.743Z,98.08
2023-01-11T12:32:35.689Z,98.65
2023-01-11T12:33:35.579Z,97.99
2023-01-11T12:34:35.496Z,99.99
2023-01-11T12:35:35.417Z,99.99
2023-01-11T12:36:35.364Z,99.99
2023-01-11T12:37:35.260Z,99.99
2023-01-11T12:38:35.177Z,99.80
2023-01-11T12:39:35.103Z,98.27
2023-01-11T12:40:35.019Z,99.99
2023-01-11T12:41:34.938Z,99.99
2023-01-11T12:42:34.863Z,99.99
2023-01-11T12:43:34.783Z,99.99
2023-01-11T12:44:34.698Z,99.99
2023-01-11T12:45:34.626Z,99.94
2023-01-11T12:46:34.535Z,99.32
2023-01-11T12:47:34.707Z,99.37
2023-01-11T12:48:34.401Z,99.27
2023-01-11T12:49:34.320Z,99.80
2023-01-11T12:50:34.244Z,99.46
2023-01-11T12:51:34.143Z,99.99
2023-01-11T12:52:34.058Z,99.99
2023-01-11T12:53:33.986Z,99.46
2023-01-11T12:54:33.901Z,99.37
2023-01-11T12:55:33.820Z,99.37
2023-01-11T12:56:33.738Z,99.94
2023-01-11T12:57:33.660Z,99.99